Time;durP1;ratioP1;P1;durP2;ratioP2;P2;SDS_P1;SDS_P2;PMS_P1;PMS_P2;Temp;Humidity;BMP_temperature;BMP_pressure;BME280_temperature;BME280_humidity;BME280_pressure;Samples;Min_cycle;Max_cycle;Signal;HPM_P1;HPM_P2
2021/03/05 00:01:33;;;;;;;7.50;3.50;;;6.30;51.10;;;;;;4315076;33;20063;-37
2021/03/05 00:04:00;;;;;;;9.93;3.63;;;6.40;51.20;;;;;;4315632;33;20079;-37
2021/03/05 00:06:26;;;;;;;5.13;2.67;;;6.40;51.20;;;;;;4302835;33;20111;-37
2021/03/05 00:08:53;;;;;;;6.83;3.50;;;6.30;51.10;;;;;;4310061;32;20168;-37
2021/03/05 00:11:20;;;;;;;3.87;2.80;;;6.30;51.10;;;;;;4344399;32;20483;-37
2021/03/05 00:13:46;;;;;;;6.30;3.70;;;6.30;51.10;;;;;;4344464;32;20093;-36
2021/03/05 00:16:13;;;;;;;7.80;4.33;;;6.30;51.10;;;;;;4332373;32;20077;-36
2021/03/05 00:18:39;;;;;;;9.00;4.17;;;6.30;51.20;;;;;;4315217;33;20167;-36
2021/03/05 00:21:06;;;;;;;8.33;4.20;;;6.20;51.30;;;;;;4315056;33;20078;-37
2021/03/05 00:23:33;;;;;;;10.33;4.30;;;6.20;51.50;;;;;;4315262;33;20073;-37
2021/03/05 00:25:59;;;;;;;5.70;2.17;;;6.10;51.50;;;;;;4324993;33;20079;-37
2021/03/05 00:28:26;;;;;;;4.83;3.20;;;6.10;51.60;;;;;;4285608;33;20525;-37
2021/03/05 00:30:52;;;;;;;7.33;4.30;;;6.00;51.70;;;;;;4298080;33;20083;-37
2021/03/05 00:33:22;;;;;;;10.93;4.47;;;6.00;51.90;;;;;;4297764;33;20087;-36
2021/03/05 00:35:48;;;;;;;7.43;4.87;;;6.00;52.00;;;;;;4297848;33;20064;-40
2021/03/05 00:38:15;;;;;;;7.67;4.63;;;5.90;52.00;;;;;;4297484;33;20087;-37
2021/03/05 00:40:41;;;;;;;10.63;5.10;;;5.90;52.10;;;;;;4285849;33;20078;-36
2021/03/05 00:43:08;;;;;;;8.87;4.50;;;5.90;52.30;;;;;;4297479;33;20525;-37
2021/03/05 00:45:34;;;;;;;9.67;4.73;;;5.90;52.50;;;;;;4286036;33;20107;-38
2021/03/05 00:48:01;;;;;;;10.17;3.60;;;5.80;52.50;;;;;;4285773;33;20146;-38
2021/03/05 00:50:28;;;;;;;8.60;4.90;;;5.90;52.60;;;;;;4309148;33;20083;-36
2021/03/05 00:52:54;;;;;;;11.83;5.37;;;5.80;52.70;;;;;;4305072;33;20593;-36
2021/03/05 00:55:21;;;;;;;9.07;5.37;;;5.80;52.70;;;;;;4317197;33;20537;-36
2021/03/05 00:57:47;;;;;;;9.33;4.60;;;5.80;52.80;;;;;;4328830;32;20501;-36
2021/03/05 01:00:16;;;;;;;8.70;4.13;;;5.80;52.90;;;;;;4343825;32;20090;-37
2021/03/05 01:02:43;;;;;;;11.20;5.33;;;5.80;53.00;;;;;;4344259;32;20090;-36
2021/03/05 01:05:10;;;;;;;8.53;4.53;;;5.80;53.00;;;;;;4356242;32;20086;-36
2021/03/05 01:07:37;;;;;;;8.10;4.20;;;5.80;53.00;;;;;;4356480;32;20067;-36
2021/03/05 01:10:05;;;;;;;6.23;4.00;;;5.80;52.90;;;;;;4352718;32;20057;-36
2021/03/05 01:12:31;;;;;;;9.87;5.10;;;5.80;52.90;;;;;;4372399;32;20063;-37
2021/03/05 01:14:58;;;;;;;10.80;5.07;;;5.80;52.90;;;;;;4347600;32;20066;-37
2021/03/05 01:17:25;;;;;;;8.80;4.67;;;5.80;52.90;;;;;;4371800;32;20068;-36
2021/03/05 01:19:52;;;;;;;9.70;4.17;;;5.70;53.00;;;;;;4371692;32;20145;-42
2021/03/05 01:22:18;;;;;;;8.07;4.87;;;5.70;53.10;;;;;;4371961;32;20066;-37
2021/03/05 01:24:45;;;;;;;11.23;5.27;;;5.70;53.30;;;;;;4373491;32;20062;-37
2021/03/05 01:27:12;;;;;;;11.23;5.63;;;5.70;53.60;;;;;;4371861;32;20074;-37
2021/03/05 01:29:38;;;;;;;10.10;4.70;;;5.70;53.70;;;;;;4380943;32;20126;-38
2021/03/05 01:32:05;;;;;;;10.53;5.53;;;5.70;53.80;;;;;;4359564;32;20093;-38
2021/03/05 01:34:32;;;;;;;8.20;4.17;;;5.70;53.90;;;;;;4355837;32;20159;-36
2021/03/05 01:37:00;;;;;;;9.53;5.03;;;5.70;53.90;;;;;;4355655;32;20090;-37
2021/03/05 01:39:27;;;;;;;10.97;5.20;;;5.70;54.00;;;;;;4355796;32;20062;-37
2021/03/05 01:41:53;;;;;;;7.40;4.17;;;5.70;54.00;;;;;;4355795;32;20062;-37
2021/03/05 01:44:20;;;;;;;9.53;5.67;;;5.70;54.00;;;;;;4343401;32;20525;-37
2021/03/05 01:46:46;;;;;;;8.33;4.73;;;5.70;54.10;;;;;;4342969;32;20082;-37
2021/03/05 01:49:13;;;;;;;9.97;4.93;;;5.70;54.00;;;;;;4355828;32;20090;-42
2021/03/05 01:51:40;;;;;;;11.57;5.47;;;5.80;54.00;;;;;;4343565;32;20146;-37
2021/03/05 01:54:07;;;;;;;9.40;5.40;;;5.80;54.00;;;;;;4343460;32;20109;-36
2021/03/05 01:56:44;;;;;;;10.40;4.67;;;5.80;54.00;;;;;;4355521;32;20471;-36
2021/03/05 01:59:26;;;;;;;10.77;4.73;;;5.80;54.00;;;;;;4355641;32;20162;-37
2021/03/05 02:01:53;;;;;;;10.73;4.23;;;5.80;53.90;;;;;;4343590;32;20106;-36
2021/03/05 02:04:19;;;;;;;10.90;4.50;;;5.90;53.80;;;;;;4330978;32;20149;-38
2021/03/05 02:06:46;;;;;;;11.17;4.43;;;5.90;53.80;;;;;;4343221;32;20058;-37
2021/03/05 02:09:13;;;;;;;7.00;4.17;;;5.90;53.80;;;;;;4330880;32;20081;-37
2021/03/05 02:11:39;;;;;;;8.57;4.40;;;5.90;53.80;;;;;;4352094;32;20139;-38
2021/03/05 02:14:07;;;;;;;9.60;4.87;;;5.90;53.80;;;;;;4373269;32;20081;-36
2021/03/05 02:17:11;;;;;;;9.50;4.50;;;5.90;53.70;;;;;;4358867;32;20157;-35
2021/03/05 02:20:16;;;;;;;10.23;4.67;;;6.00;53.80;;;;;;4373155;32;20082;-38
2021/03/05 02:23:08;;;;;;;7.87;3.70;;;5.90;53.80;;;;;;4346311;32;20070;-37
2021/03/05 02:26:17;;;;;;;12.33;5.70;;;6.00;53.70;;;;;;4371061;32;20520;-37
2021/03/05 02:29:04;;;;;;;8.93;4.53;;;5.90;53.80;;;;;;4371025;32;20074;-38
2021/03/05 02:31:49;;;;;;;9.20;4.03;;;5.90;53.90;;;;;;4375739;32;20093;-37
2021/03/05 02:34:38;;;;;;;7.27;3.57;;;5.90;53.90;;;;;;4374351;32;20078;-37
2021/03/05 02:37:11;;;;;;;11.53;5.23;;;5.90;53.90;;;;;;4362386;32;20151;-37
2021/03/05 02:39:58;;;;;;;9.23;5.63;;;5.90;54.00;;;;;;4374564;32;20150;-36
2021/03/05 02:42:47;;;;;;;9.47;5.03;;;5.90;54.10;;;;;;4361877;32;20062;-37
2021/03/05 02:45:29;;;;;;;11.57;4.90;;;5.80;54.10;;;;;;4373996;32;20130;-37
2021/03/05 02:48:21;;;;;;;11.70;5.83;;;5.80;54.40;;;;;;4374341;32;20175;-37
2021/03/05 02:50:51;;;;;;;11.00;5.40;;;5.80;54.50;;;;;;4352126;32;20546;-37
2021/03/05 02:53:19;;;;;;;9.87;5.27;;;5.80;54.50;;;;;;4361612;32;20058;-37
2021/03/05 02:55:48;;;;;;;13.57;5.73;;;5.80;54.50;;;;;;4361562;32;20070;-38
2021/03/05 02:58:15;;;;;;;9.47;3.20;;;5.80;54.70;;;;;;4349468;32;20063;-37
2021/03/05 03:00:42;;;;;;;9.57;4.63;;;5.80;54.70;;;;;;4349425;32;20081;-36
2021/03/05 03:03:09;;;;;;;12.87;6.27;;;5.80;54.70;;;;;;4361911;32;20509;-37
2021/03/05 03:05:36;;;;;;;13.73;5.83;;;5.80;54.90;;;;;;4324986;32;20113;-37
2021/03/05 03:08:03;;;;;;;10.93;5.43;;;5.80;54.90;;;;;;4361746;32;20283;-38
2021/03/05 03:10:30;;;;;;;8.97;4.63;;;5.80;55.00;;;;;;4347584;32;20057;-37
2021/03/05 03:13:00;;;;;;;14.17;6.63;;;5.70;54.90;;;;;;4361464;32;20063;-38
2021/03/05 03:15:30;;;;;;;11.23;5.30;;;5.80;55.10;;;;;;4362054;32;20563;-37
2021/03/05 03:17:58;;;;;;;13.07;6.40;;;5.80;55.10;;;;;;4336989;32;20070;-37
2021/03/05 03:20:24;;;;;;;11.73;5.37;;;5.80;55.10;;;;;;4361654;32;20104;-38
2021/03/05 03:22:51;;;;;;;15.00;6.17;;;5.80;55.00;;;;;;4374336;32;20054;-37
2021/03/05 03:25:18;;;;;;;11.40;6.00;;;5.80;55.00;;;;;;4349073;32;20594;-37
2021/03/05 03:27:44;;;;;;;15.20;5.50;;;5.80;55.10;;;;;;4361552;32;20062;-38
2021/03/05 03:30:14;;;;;;;14.80;6.70;;;5.80;55.20;;;;;;4390920;32;20167;-37
2021/03/05 03:32:41;;;;;;;15.70;7.40;;;5.80;55.10;;;;;;4376263;32;20442;-39
2021/03/05 03:35:09;;;;;;;15.00;6.60;;;5.80;55.10;;;;;;4351376;32;20645;-37
2021/03/05 03:37:36;;;;;;;18.53;6.57;;;5.90;55.10;;;;;;4351384;32;20088;-38
2021/03/05 03:40:11;;;;;;;11.70;6.33;;;5.90;55.10;;;;;;4363727;32;20080;-37
2021/03/05 03:42:37;;;;;;;17.55;8.35;;;5.90;55.20;;;;;;4375957;32;20092;-36
2021/03/05 03:45:05;;;;;;;14.53;6.90;;;5.90;55.30;;;;;;4357020;32;20071;-37
2021/03/05 03:47:32;;;;;;;14.37;7.67;;;5.90;55.60;;;;;;4345456;32;20564;-38
2021/03/05 03:50:02;;;;;;;15.97;6.40;;;5.90;55.70;;;;;;4344980;32;20070;-39
2021/03/05 03:53:17;;;;;;;13.97;7.67;;;5.90;56.40;;;;;;4357235;32;20082;-37
2021/03/05 03:55:44;;;;;;;11.77;6.03;;;5.90;56.10;;;;;;4327816;33;20075;-36
2021/03/05 03:58:11;;;;;;;13.67;6.73;;;5.90;55.70;;;;;;4303545;33;20098;-36
2021/03/05 04:00:37;;;;;;;16.07;5.47;;;5.90;55.80;;;;;;4315215;33;20547;-37
2021/03/05 04:03:05;;;;;;;14.23;7.60;;;5.90;55.90;;;;;;4315134;33;20605;-37
2021/03/05 04:05:37;;;;;;;18.60;7.97;;;6.00;56.10;;;;;;4302565;33;20491;-38
2021/03/05 04:08:04;;;;;;;16.90;7.77;;;5.90;56.20;;;;;;4315551;33;20087;-37
2021/03/05 04:10:31;;;;;;;15.20;6.93;;;5.90;56.30;;;;;;4290149;33;20068;-37
2021/03/05 04:12:57;;;;;;;16.37;7.03;;;5.90;56.30;;;;;;4300784;33;20098;-36
2021/03/05 04:15:25;;;;;;;14.07;6.60;;;6.00;56.50;;;;;;4294947;33;20078;-36
2021/03/05 04:17:51;;;;;;;12.60;6.30;;;5.90;56.60;;;;;;4341965;33;20136;-37
2021/03/05 04:20:20;;;;;;;14.93;7.17;;;6.00;56.60;;;;;;4329954;33;20090;-36
2021/03/05 04:22:47;;;;;;;17.43;7.70;;;6.00;56.70;;;;;;4317976;33;20078;-40
2021/03/05 04:25:17;;;;;;;17.10;7.07;;;6.00;56.70;;;;;;4317333;33;20090;-37
2021/03/05 04:27:43;;;;;;;18.73;7.37;;;6.00;56.90;;;;;;4342506;33;20067;-37
2021/03/05 04:30:11;;;;;;;21.77;8.17;;;6.00;56.90;;;;;;4329356;33;20087;-39
2021/03/05 04:32:42;;;;;;;16.27;7.97;;;6.00;57.00;;;;;;4367606;32;20560;-39
2021/03/05 04:35:09;;;;;;;15.63;7.20;;;6.00;57.00;;;;;;4359409;32;20499;-36
2021/03/05 04:37:37;;;;;;;21.03;7.93;;;6.10;57.10;;;;;;4347222;32;20076;-38
2021/03/05 04:40:06;;;;;;;14.90;7.03;;;6.10;57.10;;;;;;4347015;32;20616;-38
2021/03/05 04:42:32;;;;;;;16.67;8.33;;;6.20;57.20;;;;;;4341468;33;20171;-38
2021/03/05 04:45:00;;;;;;;13.30;7.87;;;6.20;57.10;;;;;;4329436;33;20515;-37
2021/03/05 04:47:26;;;;;;;17.57;9.27;;;6.20;57.20;;;;;;4329613;33;20068;-38
2021/03/05 04:49:53;;;;;;;18.10;8.17;;;6.30;57.40;;;;;;4341399;33;20156;-38
2021/03/05 04:52:20;;;;;;;14.97;7.60;;;6.20;57.50;;;;;;4329512;33;20058;-37
2021/03/05 04:54:46;;;;;;;20.53;8.60;;;6.30;57.70;;;;;;4328916;33;20620;-36
2021/03/05 04:57:16;;;;;;;16.50;7.40;;;6.30;57.80;;;;;;4326713;33;20071;-39
2021/03/05 04:59:43;;;;;;;13.60;6.83;;;6.20;57.70;;;;;;4302143;33;20170;-38
2021/03/05 05:02:10;;;;;;;14.93;6.90;;;6.20;57.70;;;;;;4326689;33;20173;-39
2021/03/05 05:04:37;;;;;;;13.60;7.13;;;6.30;57.90;;;;;;4302317;33;20168;-37
2021/03/05 05:07:03;;;;;;;18.20;9.10;;;6.30;57.90;;;;;;4302066;33;20159;-37
2021/03/05 05:09:30;;;;;;;15.33;6.30;;;6.30;58.00;;;;;;4314366;33;20070;-37
2021/03/05 05:11:56;;;;;;;18.90;8.50;;;6.30;58.10;;;;;;4318075;33;20663;-37
2021/03/05 05:14:23;;;;;;;16.30;7.53;;;6.30;58.10;;;;;;4328782;33;20066;-39
2021/03/05 05:16:50;;;;;;;17.13;8.33;;;6.30;58.10;;;;;;4299165;33;20082;-41
2021/03/05 05:19:16;;;;;;;16.43;7.27;;;6.30;58.30;;;;;;4264655;33;20063;-37
2021/03/05 05:21:43;;;;;;;5.83;2.30;;;6.30;58.30;;;;;;4282478;33;20551;-37
2021/03/05 05:24:10;;;;;;;12.70;7.63;;;6.30;58.30;;;;;;4282461;33;20060;-38
2021/03/05 05:26:36;;;;;;;10.47;5.87;;;6.20;58.20;;;;;;4270880;33;20132;-38
2021/03/05 05:29:03;;;;;;;15.63;7.60;;;6.20;58.20;;;;;;4270688;33;20537;-39
2021/03/05 05:31:30;;;;;;;13.43;6.87;;;6.20;58.30;;;;;;4283074;33;20105;-37
2021/03/05 05:33:56;;;;;;;11.53;6.00;;;6.20;58.40;;;;;;4267746;33;20065;-38
2021/03/05 05:36:23;;;;;;;9.87;5.73;;;6.20;58.20;;;;;;4267980;33;20167;-37
2021/03/05 05:38:49;;;;;;;10.97;6.83;;;6.20;58.20;;;;;;4268584;33;20065;-38
2021/03/05 05:41:16;;;;;;;9.70;4.20;;;6.20;58.20;;;;;;4268225;33;20208;-37
2021/03/05 05:43:43;;;;;;;9.63;3.77;;;6.10;58.10;;;;;;4267938;33;20072;-36
2021/03/05 05:46:10;;;;;;;3.87;1.30;;;6.00;57.50;;;;;;4279914;33;20061;-34
2021/03/05 05:48:38;;;;;;;7.20;1.37;;;6.00;57.50;;;;;;4282364;33;20052;-34
2021/03/05 05:51:25;;;;;;;2.30;1.07;;;5.90;57.70;;;;;;4313918;33;20067;-34
2021/03/05 05:53:51;;;;;;;2.97;1.20;;;5.80;57.70;;;;;;4344157;32;20643;-34
2021/03/05 05:56:20;;;;;;;1.93;0.43;;;5.70;57.50;;;;;;4346269;32;20070;-35
2021/03/05 05:58:47;;;;;;;3.03;1.67;;;5.60;57.40;;;;;;4346008;32;20085;-35
2021/03/05 06:01:14;;;;;;;2.20;1.60;;;5.60;57.30;;;;;;4321450;32;20143;-33
2021/03/05 06:03:40;;;;;;;1.77;1.00;;;5.40;56.90;;;;;;4357806;32;20060;-35
2021/03/05 06:06:07;;;;;;;3.77;0.80;;;5.30;57.20;;;;;;4342319;32;20085;-35
2021/03/05 06:08:34;;;;;;;2.17;0.90;;;5.20;57.60;;;;;;4332260;32;20095;-34
2021/03/05 06:11:00;;;;;;;3.90;0.70;;;5.20;57.80;;;;;;4357673;32;20528;-38
2021/03/05 06:13:28;;;;;;;1.07;0.80;;;5.10;57.80;;;;;;4357476;32;20105;-36
2021/03/05 06:16:17;;;;;;;1.10;0.90;;;5.00;57.50;;;;;;4370600;32;20134;-35
2021/03/05 06:18:44;;;;;;;1.40;0.80;;;4.90;58.00;;;;;;4370645;32;20247;-36
2021/03/05 06:21:11;;;;;;;1.30;0.70;;;4.80;57.40;;;;;;4333925;32;20571;-36
2021/03/05 06:23:58;;;;;;;1.73;0.60;;;4.70;57.80;;;;;;4358173;32;20082;-36
2021/03/05 06:26:25;;;;;;;3.23;0.80;;;4.70;57.90;;;;;;4358119;32;20069;-39
2021/03/05 06:29:06;;;;;;;1.73;0.70;;;4.60;58.00;;;;;;4357857;32;20069;-38
2021/03/05 06:31:33;;;;;;;2.07;0.80;;;4.50;57.80;;;;;;4370243;32;20072;-37
2021/03/05 06:34:01;;;;;;;1.27;1.00;;;4.50;58.20;;;;;;4370268;32;20546;-36
2021/03/05 06:36:27;;;;;;;3.70;0.80;;;4.40;58.00;;;;;;4361608;32;20112;-37
2021/03/05 06:38:54;;;;;;;5.90;0.50;;;4.30;58.30;;;;;;4388011;32;20481;-35
2021/03/05 06:41:29;;;;;;;1.53;0.90;;;4.30;58.60;;;;;;4337114;32;20073;-35
2021/03/05 06:44:01;;;;;;;3.62;0.88;;;4.20;58.50;;;;;;4387963;32;20152;-35
2021/03/05 06:46:37;;;;;;;2.07;0.93;;;4.10;59.00;;;;;;4387961;32;20058;-40
2021/03/05 06:49:09;;;;;;;2.37;0.70;;;4.00;58.90;;;;;;4387501;32;20076;-37
2021/03/05 06:51:36;;;;;;;1.23;0.80;;;3.90;59.00;;;;;;4388028;32;20070;-38
2021/03/05 06:54:10;;;;;;;1.97;1.00;;;3.90;58.90;;;;;;4387811;32;20498;-39
2021/03/05 06:56:39;;;;;;;3.10;1.10;;;4.00;59.00;;;;;;4387652;32;20074;-37
2021/03/05 06:59:13;;;;;;;1.00;0.77;;;4.00;59.10;;;;;;4373961;32;20550;-36
2021/03/05 07:01:55;;;;;;;1.43;0.90;;;4.00;58.90;;;;;;4387528;32;20100;-36
2021/03/05 07:04:32;;;;;;;3.07;0.90;;;4.00;58.90;;;;;;4387827;32;20223;-37
2021/03/05 07:07:06;;;;;;;1.93;1.00;;;4.00;59.10;;;;;;4387571;32;20096;-40
2021/03/05 07:09:41;;;;;;;2.95;0.60;;;4.10;59.00;;;;;;4394958;32;20492;-38
2021/03/05 07:12:20;;;;;;;5.25;0.85;;;4.10;59.10;;;;;;4402645;32;20099;-38
2021/03/05 07:15:01;;;;;;;1.80;0.70;;;4.10;58.90;;;;;;4388719;32;20089;-38
2021/03/05 07:17:29;;;;;;;1.03;0.60;;;4.10;58.60;;;;;;4403816;32;20077;-37
2021/03/05 07:19:55;;;;;;;1.60;0.63;;;4.10;58.40;;;;;;4391502;32;20079;-36
2021/03/05 07:22:30;;;;;;;1.20;0.70;;;4.10;58.40;;;;;;4391268;32;20483;-37
2021/03/05 07:24:57;;;;;;;1.00;0.50;;;4.20;58.10;;;;;;4406017;32;20072;-38
2021/03/05 07:27:50;;;;;;;1.37;0.70;;;4.30;58.10;;;;;;4405551;32;20152;-37
2021/03/05 07:30:19;;;;;;;2.10;0.93;;;4.30;57.50;;;;;;4389444;32;20082;-39
2021/03/05 07:32:48;;;;;;;1.70;0.90;;;4.40;57.50;;;;;;4391095;32;20062;-37
2021/03/05 07:35:27;;;;;;;3.23;0.60;;;4.40;57.00;;;;;;4391273;32;20618;-35
2021/03/05 07:37:55;;;;;;;1.50;0.70;;;4.40;56.70;;;;;;4405414;32;20073;-36
2021/03/05 07:40:22;;;;;;;3.93;0.90;;;4.40;56.70;;;;;;4404994;32;20117;-34
2021/03/05 07:42:49;;;;;;;4.53;0.70;;;4.40;56.10;;;;;;4390809;32;20201;-35
2021/03/05 07:45:16;;;;;;;3.20;0.87;;;4.30;55.90;;;;;;4378543;32;20076;-35
2021/03/05 07:47:46;;;;;;;3.33;0.60;;;4.20;55.80;;;;;;4391122;32;20141;-34
2021/03/05 07:50:14;;;;;;;1.97;0.80;;;4.10;55.70;;;;;;4405047;32;20537;-35
2021/03/05 07:52:41;;;;;;;1.87;0.50;;;4.10;55.80;;;;;;4365997;32;20506;-36
2021/03/05 07:55:08;;;;;;;0.67;0.40;;;4.10;55.90;;;;;;4378359;32;20077;-35
2021/03/05 07:57:35;;;;;;;1.43;0.60;;;4.20;56.20;;;;;;4365985;32;20077;-35
2021/03/05 08:00:03;;;;;;;1.00;0.50;;;4.20;55.60;;;;;;4404612;32;20548;-34
2021/03/05 08:02:59;;;;;;;2.00;0.60;;;4.20;55.70;;;;;;4404687;32;20058;-33
2021/03/05 08:05:43;;;;;;;;;;;4.30;55.90;;;;;;4391195;32;20534;-34
2021/03/05 08:08:30;;;;;;;2.17;0.83;;;4.40;55.80;;;;;;4404609;32;19971;-36
2021/03/05 08:11:03;;;;;;;1.90;0.80;;;4.40;55.40;;;;;;4389725;32;20081;-36
2021/03/05 08:13:50;;;;;;;3.43;0.70;;;4.30;55.60;;;;;;4375360;32;20070;-39
2021/03/05 08:16:28;;;;;;;1.70;0.70;;;4.30;55.70;;;;;;4375723;32;20135;-36
2021/03/05 08:19:04;;;;;;;1.10;0.67;;;4.30;55.60;;;;;;4389091;32;20161;-35
2021/03/05 08:21:57;;;;;;;3.00;1.03;;;4.30;55.60;;;;;;4389282;32;20074;-33
2021/03/05 08:24:31;;;;;;;1.43;0.73;;;4.40;55.40;;;;;;4389505;32;20062;-35
2021/03/05 08:27:05;;;;;;;1.77;0.70;;;4.40;55.40;;;;;;4363772;32;20065;-36
2021/03/05 08:30:08;;;;;;;1.90;0.77;;;4.40;55.20;;;;;;4341319;32;20067;-35
2021/03/05 08:32:35;;;;;;;1.53;1.10;;;4.30;55.10;;;;;;4341654;33;20067;-34
2021/03/05 08:35:10;;;;;;;1.93;0.90;;;4.20;55.30;;;;;;4341692;33;20503;-37
2021/03/05 08:38:08;;;;;;;0.82;0.70;;;4.20;55.10;;;;;;4342134;33;20165;-35
2021/03/05 08:40:51;;;;;;;1.00;0.50;;;4.30;55.40;;;;;;4314366;33;20066;-34
2021/03/05 08:43:23;;;;;;;2.70;0.80;;;4.30;55.10;;;;;;4341668;33;20059;-33
2021/03/05 08:45:55;;;;;;;6.43;1.37;;;4.30;55.10;;;;;;4329479;33;20086;-33
2021/03/05 08:48:45;;;;;;;5.17;1.37;;;4.40;54.90;;;;;;4341843;33;20591;-34
2021/03/05 08:51:20;;;;;;;3.20;1.20;;;4.40;54.90;;;;;;4341441;33;20156;-34
2021/03/05 08:53:54;;;;;;;4.65;1.35;;;4.40;54.50;;;;;;4329130;33;20082;-34
2021/03/05 08:56:27;;;;;;;1.37;0.73;;;4.50;54.20;;;;;;4330208;33;20133;-36
2021/03/05 08:59:13;;;;;;;1.20;0.60;;;4.60;54.20;;;;;;4341983;33;20074;-35
2021/03/05 09:01:41;;;;;;;3.53;0.90;;;4.60;54.20;;;;;;4329308;33;20095;-35
2021/03/05 09:04:18;;;;;;;4.33;1.00;;;4.70;54.20;;;;;;4328846;33;20633;-36
2021/03/05 09:06:56;;;;;;;1.47;0.50;;;4.70;54.20;;;;;;4347026;32;20513;-36
2021/03/05 09:09:27;;;;;;;3.00;0.80;;;4.70;54.50;;;;;;4343939;32;20154;-36
2021/03/05 09:12:12;;;;;;;1.20;0.70;;;4.70;53.90;;;;;;4344128;32;20097;-37
2021/03/05 09:14:41;;;;;;;1.92;0.90;;;4.80;53.80;;;;;;4335198;33;20071;-35
2021/03/05 09:17:09;;;;;;;1.40;0.53;;;4.90;54.00;;;;;;4341647;33;20079;-33
2021/03/05 09:19:39;;;;;;;1.47;0.53;;;4.90;53.30;;;;;;4329620;33;20136;-33
2021/03/05 09:22:21;;;;;;;2.13;0.80;;;5.00;53.10;;;;;;4329017;33;20142;-36
2021/03/05 09:24:53;;;;;;;2.53;0.77;;;5.00;53.10;;;;;;4341356;33;20073;-33
2021/03/05 09:27:31;;;;;;;0.80;0.50;;;5.10;53.00;;;;;;4341052;33;20063;-36
2021/03/05 09:30:16;;;;;;;2.77;0.80;;;5.10;52.70;;;;;;4356703;32;20537;-36
2021/03/05 09:32:52;;;;;;;;;;;5.20;52.70;;;;;;4359088;32;20078;-35
2021/03/05 09:35:37;;;;;;;2.12;0.40;;;5.30;52.00;;;;;;4358338;32;20065;-35
2021/03/05 09:38:03;;;;;;;1.73;0.40;;;5.20;50.20;;;;;;4344222;32;20522;-35
2021/03/05 09:40:30;;;;;;;0.60;0.40;;;5.30;50.60;;;;;;4357960;32;20100;-36
2021/03/05 09:42:58;;;;;;;0.77;0.40;;;5.30;50.00;;;;;;4357779;32;20073;-35
2021/03/05 09:45:52;;;;;;;0.80;0.40;;;5.30;49.80;;;;;;4357945;32;20098;-35
2021/03/05 09:48:33;;;;;;;1.80;0.30;;;5.50;50.00;;;;;;4357926;32;20489;-35
2021/03/05 09:51:07;;;;;;;2.43;0.20;;;5.70;50.10;;;;;;4358125;32;20156;-33
2021/03/05 09:53:35;;;;;;;0.22;0.20;;;5.80;49.50;;;;;;4358127;32;20068;-34
2021/03/05 09:56:08;;;;;;;0.37;0.30;;;5.90;48.50;;;;;;4358698;32;20086;-33
2021/03/05 09:58:35;;;;;;;0.73;0.40;;;6.20;48.30;;;;;;4358697;32;20066;-32
2021/03/05 10:01:03;;;;;;;1.27;0.40;;;6.40;47.80;;;;;;4358124;32;20521;-35
2021/03/05 10:03:30;;;;;;;0.37;0.30;;;6.60;46.80;;;;;;4356446;32;20082;-38
2021/03/05 10:05:57;;;;;;;2.67;0.40;;;6.70;45.90;;;;;;4357976;32;20094;-36
2021/03/05 10:08:28;;;;;;;2.37;0.30;;;6.80;46.10;;;;;;4358408;32;20062;-35
2021/03/05 10:10:57;;;;;;;0.43;0.23;;;6.90;45.50;;;;;;4373226;32;20069;-34
2021/03/05 10:13:54;;;;;;;0.80;0.30;;;7.10;45.60;;;;;;4373065;32;20663;-35
2021/03/05 10:16:26;;;;;;;1.13;0.30;;;7.20;45.10;;;;;;4372911;32;20124;-35
2021/03/05 10:19:01;;;;;;;1.83;0.50;;;7.30;44.90;;;;;;4371454;32;20059;-40
2021/03/05 10:21:27;;;;;;;;;;;7.40;44.00;;;;;;4372916;32;20544;-37
2021/03/05 10:23:54;;;;;;;0.60;0.30;;;7.60;43.60;;;;;;4372777;32;19977;-38
2021/03/05 10:26:26;;;;;;;1.03;0.30;;;7.70;43.50;;;;;;4372715;32;20139;-36
2021/03/05 10:29:02;;;;;;;1.70;0.30;;;7.70;43.40;;;;;;4379453;32;20096;-34
2021/03/05 10:31:50;;;;;;;0.23;0.20;;;7.90;44.10;;;;;;4387588;32;20485;-38
2021/03/05 10:34:23;;;;;;;0.20;0.17;;;8.00;44.00;;;;;;4387253;32;20081;-37
2021/03/05 10:36:50;;;;;;;7.30;1.10;;;8.20;44.20;;;;;;4387818;32;20092;-34
2021/03/05 10:39:17;;;;;;;5.83;0.70;;;8.30;44.10;;;;;;4388027;32;20054;-37
2021/03/05 10:41:52;;;;;;;6.33;0.60;;;8.40;44.10;;;;;;4387754;32;20069;-33
2021/03/05 10:44:18;;;;;;;1.58;0.82;;;8.60;44.10;;;;;;4388000;32;20058;-33
2021/03/05 10:46:45;;;;;;;3.63;0.87;;;8.80;43.90;;;;;;4387701;32;20070;-33
2021/03/05 10:49:11;;;;;;;0.30;0.10;;;9.00;43.80;;;;;;4388019;32;20073;-33
2021/03/05 10:51:38;;;;;;;0.73;0.40;;;9.10;43.50;;;;;;4389191;32;20057;-33
2021/03/05 10:54:04;;;;;;;1.00;0.40;;;9.30;42.50;;;;;;4391344;32;20582;-34
2021/03/05 10:56:32;;;;;;;2.75;1.00;;;9.30;39.60;;;;;;4390471;32;20070;-33
2021/03/05 10:58:58;;;;;;;2.80;0.63;;;9.40;38.80;;;;;;4390535;32;20062;-34
2021/03/05 11:01:25;;;;;;;0.57;0.30;;;9.40;37.50;;;;;;4390691;32;20081;-35
2021/03/05 11:03:51;;;;;;;2.15;0.50;;;9.40;37.60;;;;;;4390478;32;20054;-37
2021/03/05 11:06:19;;;;;;;0.63;0.30;;;9.30;37.40;;;;;;4390439;32;20614;-36
2021/03/05 11:08:46;;;;;;;0.50;0.40;;;9.40;37.50;;;;;;4393039;32;20057;-38
2021/03/05 11:11:12;;;;;;;0.80;0.30;;;9.40;37.00;;;;;;4391601;32;20068;-34
2021/03/05 11:13:39;;;;;;;1.23;0.40;;;9.40;36.60;;;;;;4406020;32;20066;-35
2021/03/05 11:16:05;;;;;;;0.73;0.40;;;9.40;37.10;;;;;;4406064;32;20192;-40
2021/03/05 11:18:32;;;;;;;1.87;0.30;;;9.30;36.60;;;;;;4405126;32;20153;-38
2021/03/05 11:20:59;;;;;;;0.20;0.20;;;9.20;36.40;;;;;;4405539;32;20076;-41
2021/03/05 11:23:25;;;;;;;0.83;0.20;;;9.20;37.00;;;;;;4391827;32;20081;-40
2021/03/05 11:25:52;;;;;;;0.30;0.20;;;9.30;37.30;;;;;;4391048;32;20084;-39
2021/03/05 11:28:18;;;;;;;0.17;0.17;;;9.30;36.00;;;;;;4405327;32;20072;-40
2021/03/05 11:30:45;;;;;;;0.17;0.17;;;9.30;35.80;;;;;;4405387;32;20084;-41
2021/03/05 11:33:12;;;;;;;0.67;0.10;;;9.40;36.60;;;;;;4405492;32;20062;-40
2021/03/05 11:35:38;;;;;;;0.37;0.20;;;9.40;36.10;;;;;;4405168;32;20059;-42
2021/03/05 11:38:05;;;;;;;0.20;0.13;;;9.30;35.70;;;;;;4405099;32;20066;-41
2021/03/05 11:40:31;;;;;;;0.40;0.20;;;9.40;35.90;;;;;;4390799;32;20090;-43
2021/03/05 11:42:58;;;;;;;0.87;0.33;;;9.40;35.80;;;;;;4390962;32;20107;-42
2021/03/05 11:45:25;;;;;;;0.47;0.40;;;9.40;35.50;;;;;;4405006;32;20084;-41
2021/03/05 11:47:52;;;;;;;0.90;0.40;;;9.60;36.40;;;;;;4405068;32;20069;-38
2021/03/05 11:50:18;;;;;;;2.15;0.40;;;9.60;35.90;;;;;;4404767;32;20517;-41
2021/03/05 11:52:45;;;;;;;2.62;0.60;;;9.70;35.90;;;;;;4405125;32;20054;-41
2021/03/05 11:55:12;;;;;;;1.70;0.40;;;9.80;35.20;;;;;;4405307;32;20157;-42
2021/03/05 11:57:38;;;;;;;1.60;0.70;;;9.70;33.90;;;;;;4405125;32;20617;-40
2021/03/05 12:00:06;;;;;;;0.55;0.30;;;9.70;34.20;;;;;;4404736;32;20597;-42
2021/03/05 12:02:34;;;;;;;1.17;0.17;;;9.80;35.10;;;;;;4404442;32;20097;-42
2021/03/05 12:05:00;;;;;;;0.60;0.10;;;9.90;33.70;;;;;;4405253;32;20100;-41
2021/03/05 12:07:27;;;;;;;0.10;0.10;;;10.00;33.10;;;;;;4405027;32;20173;-40
2021/03/05 12:09:53;;;;;;;0.10;0.10;;;10.00;31.60;;;;;;4356122;32;20066;-37
2021/03/05 12:12:20;;;;;;;0.87;0.20;;;10.10;31.40;;;;;;4375641;32;20073;-40
2021/03/05 12:14:48;;;;;;;0.60;0.10;;;10.00;30.20;;;;;;4375265;32;20077;-39
2021/03/05 12:17:15;;;;;;;0.13;0.10;;;10.10;30.70;;;;;;4389337;32;20055;-37
2021/03/05 12:19:42;;;;;;;0.25;0.10;;;10.00;30.00;;;;;;4390099;32;20101;-38
2021/03/05 12:22:09;;;;;;;0.20;0.10;;;9.80;30.00;;;;;;4375760;32;20123;-35
2021/03/05 12:24:36;;;;;;;0.03;0.03;;;9.50;30.30;;;;;;4389351;32;20639;-38
2021/03/05 12:27:03;;;;;;;0.00;0.00;;;9.40;31.30;;;;;;4344345;32;20230;-38
2021/03/05 12:29:30;;;;;;;0.50;0.30;;;9.20;32.00;;;;;;4343891;32;20627;-38
2021/03/05 12:31:57;;;;;;;1.70;0.20;;;9.10;32.30;;;;;;4356914;32;20097;-40
2021/03/05 12:34:23;;;;;;;0.10;0.10;;;8.90;32.40;;;;;;4356580;32;20097;-42
2021/03/05 12:36:50;;;;;;;2.07;0.33;;;8.80;32.90;;;;;;4356426;32;20118;-39
2021/03/05 12:39:17;;;;;;;0.40;0.20;;;8.70;32.90;;;;;;4344109;32;20065;-41
2021/03/05 12:41:43;;;;;;;0.50;0.27;;;8.60;33.00;;;;;;4332278;32;20122;-40
2021/03/05 12:44:10;;;;;;;2.27;0.60;;;8.60;32.90;;;;;;4344431;32;20078;-40
2021/03/05 12:46:37;;;;;;;1.07;0.40;;;8.50;33.30;;;;;;4356819;32;20066;-40
2021/03/05 12:49:03;;;;;;;2.57;0.30;;;8.50;33.00;;;;;;4356319;32;20057;-40
2021/03/05 12:51:30;;;;;;;1.90;0.63;;;8.40;33.20;;;;;;4313968;33;20188;-41
2021/03/05 12:53:56;;;;;;;0.50;0.30;;;8.40;33.30;;;;;;4290052;33;20118;-41
2021/03/05 12:56:23;;;;;;;2.07;0.37;;;8.30;33.00;;;;;;4326548;33;20071;-41
2021/03/05 12:58:49;;;;;;;9.43;0.80;;;8.20;33.50;;;;;;4338481;33;20615;-41
2021/03/05 13:01:16;;;;;;;0.37;0.37;;;8.20;34.00;;;;;;4329009;33;20098;-42
2021/03/05 13:03:42;;;;;;;1.60;0.83;;;8.10;34.00;;;;;;4341521;33;20079;-38
2021/03/05 13:06:09;;;;;;;2.93;0.60;;;8.10;34.10;;;;;;4341726;33;20499;-41
2021/03/05 13:08:35;;;;;;;0.97;0.33;;;8.00;34.20;;;;;;4328916;33;20085;-41
2021/03/05 13:11:02;;;;;;;2.30;0.30;;;7.90;34.40;;;;;;4328967;33;20216;-40
2021/03/05 13:13:29;;;;;;;0.47;0.23;;;7.90;34.50;;;;;;4328891;33;20090;-41